sensor_id;sensor_type;location;lat;lon;timestamp;P1;durP1;ratioP1;P2;durP2;ratioP2
40048;SDS011;54524;55.740;37.544;2022-08-03T00:01:03;13.8;;;4.8;;
40048;SDS011;54524;55.740;37.544;2022-08-03T00:02:03;14;;;4.8;;
40048;SDS011;54524;55.740;37.544;2022-08-03T00:03:04;14.4;;;4.9;;
40048;SDS011;54524;55.740;37.544;2022-08-03T00:04:05;14.6;;;5.1;;
40048;SDS011;54524;55.740;37.544;2022-08-03T00:05:06;13.2;;;4.8;;
40048;SDS011;54524;55.740;37.544;2022-08-03T00:06:07;13.3;;;4.8;;
40048;SDS011;54524;55.740;37.544;2022-08-03T00:07:08;14.7;;;5;;
40048;SDS011;54524;55.740;37.544;2022-08-03T00:08:09;14.2;;;4.9;;
40048;SDS011;54524;55.740;37.544;2022-08-03T00:09:10;14;;;4.9;;
40048;SDS011;54524;55.740;37.544;2022-08-03T00:11:03;14.8;;;4.9;;
40048;SDS011;54524;55.740;37.544;2022-08-03T00:12:06;15.3;;;4.9;;
40048;SDS011;54524;55.740;37.544;2022-08-03T00:13:06;14.7;;;4.5;;
40048;SDS011;54524;55.740;37.544;2022-08-03T00:14:07;14.6;;;4.5;;
40048;SDS011;54524;55.740;37.544;2022-08-03T00:15:08;14.6;;;4.5;;
40048;SDS011;54524;55.740;37.544;2022-08-03T00:16:09;14.9;;;5;;
40048;SDS011;54524;55.740;37.544;2022-08-03T00:17:11;15.4;;;5.1;;
40048;SDS011;54524;55.740;37.544;2022-08-03T00:18:11;14.2;;;5.1;;
40048;SDS011;54524;55.740;37.544;2022-08-03T00:19:12;17.3;;;5.1;;
40048;SDS011;54524;55.740;37.544;2022-08-03T00:21:03;16.5;;;5.6;;
40048;SDS011;54524;55.740;37.544;2022-08-03T00:22:04;15.8;;;5.4;;
40048;SDS011;54524;55.740;37.544;2022-08-03T00:23:05;15.3;;;5.3;;
40048;SDS011;54524;55.740;37.544;2022-08-03T00:24:05;15.8;;;5.3;;
40048;SDS011;54524;55.740;37.544;2022-08-03T00:25:06;19.2;;;5.4;;
40048;SDS011;54524;55.740;37.544;2022-08-03T00:26:07;19.8;;;5.5;;
40048;SDS011;54524;55.740;37.544;2022-08-03T00:27:08;19.6;;;5.5;;
40048;SDS011;54524;55.740;37.544;2022-08-03T00:28:08;16.4;;;5.2;;
40048;SDS011;54524;55.740;37.544;2022-08-03T00:29:09;16.3;;;5.3;;
40048;SDS011;54524;55.740;37.544;2022-08-03T00:31:03;19.7;;;5.5;;
40048;SDS011;54524;55.740;37.544;2022-08-03T00:32:04;19.6;;;5.4;;
40048;SDS011;54524;55.740;37.544;2022-08-03T00:33:05;19.6;;;5.4;;
40048;SDS011;54524;55.740;37.544;2022-08-03T00:34:05;16.4;;;5.2;;
40048;SDS011;54524;55.740;37.544;2022-08-03T00:35:06;16.3;;;5.1;;
40048;SDS011;54524;55.740;37.544;2022-08-03T00:36:07;16.2;;;5.1;;
40048;SDS011;54524;55.740;37.544;2022-08-03T00:37:08;17.4;;;5.3;;
40048;SDS011;54524;55.740;37.544;2022-08-03T00:38:08;17.8;;;5.3;;
40048;SDS011;54524;55.740;37.544;2022-08-03T00:39:09;17.1;;;5.3;;
40048;SDS011;54524;55.740;37.544;2022-08-03T00:41:03;20.2;;;5.4;;
40048;SDS011;54524;55.740;37.544;2022-08-03T00:42:04;20.5;;;5.4;;
40048;SDS011;54524;55.740;37.544;2022-08-03T00:43:05;15.7;;;4.9;;
40048;SDS011;54524;55.740;37.544;2022-08-03T00:44:06;15.7;;;5;;
40048;SDS011;54524;55.740;37.544;2022-08-03T00:45:07;14.9;;;4.9;;
40048;SDS011;54524;55.740;37.544;2022-08-03T00:46:07;14.1;;;4.9;;
40048;SDS011;54524;55.740;37.544;2022-08-03T00:47:09;14.7;;;5;;
40048;SDS011;54524;55.740;37.544;2022-08-03T00:48:10;14.8;;;5;;
40048;SDS011;54524;55.740;37.544;2022-08-03T00:49:11;17.4;;;5.2;;
40048;SDS011;54524;55.740;37.544;2022-08-03T00:51:02;6.30;;;1.20;;
40048;SDS011;54524;55.740;37.544;2022-08-03T00:52:03;18.2;;;5.1;;
40048;SDS011;54524;55.740;37.544;2022-08-03T00:53:04;13;;;4.8;;
40048;SDS011;54524;55.740;37.544;2022-08-03T00:54:05;12.8;;;4.8;;
40048;SDS011;54524;55.740;37.544;2022-08-03T00:55:06;13.2;;;4.7;;
40048;SDS011;54524;55.740;37.544;2022-08-03T00:56:06;12;;;4.6;;
40048;SDS011;54524;55.740;37.544;2022-08-03T00:57:07;11.6;;;4.6;;
40048;SDS011;54524;55.740;37.544;2022-08-03T00:58:08;11.6;;;4.7;;
40048;SDS011;54524;55.740;37.544;2022-08-03T00:59:10;14.8;;;4.9;;
40048;SDS011;54524;55.740;37.544;2022-08-03T01:01:04;15.3;;;4.9;;
40048;SDS011;54524;55.740;37.544;2022-08-03T01:02:06;13.4;;;4.3;;
40048;SDS011;54524;55.740;37.544;2022-08-03T01:03:07;13.5;;;4.4;;
40048;SDS011;54524;55.740;37.544;2022-08-03T01:04:08;13.3;;;4.3;;
40048;SDS011;54524;55.740;37.544;2022-08-03T01:05:09;11.4;;;4.2;;
40048;SDS011;54524;55.740;37.544;2022-08-03T01:06:11;11.4;;;4.2;;
40048;SDS011;54524;55.740;37.544;2022-08-03T01:07:19;12.3;;;4.2;;
40048;SDS011;54524;55.740;37.544;2022-08-03T01:08:22;13.6;;;4.4;;
40048;SDS011;54524;55.740;37.544;2022-08-03T01:09:29;13.6;;;4.4;;
40048;SDS011;54524;55.740;37.544;2022-08-03T01:11:05;9.3;;;3.9;;
40048;SDS011;54524;55.740;37.544;2022-08-03T01:12:10;9.3;;;3.8;;
40048;SDS011;54524;55.740;37.544;2022-08-03T01:13:16;9.4;;;3.9;;
40048;SDS011;54524;55.740;37.544;2022-08-03T01:14:19;8.5;;;3.6;;
40048;SDS011;54524;55.740;37.544;2022-08-03T01:15:24;8.5;;;3.6;;
40048;SDS011;54524;55.740;37.544;2022-08-03T01:16:27;9.1;;;3.6;;
40048;SDS011;54524;55.740;37.544;2022-08-03T01:17:31;7.8;;;3.6;;
40048;SDS011;54524;55.740;37.544;2022-08-03T01:18:35;7.8;;;3.6;;
40048;SDS011;54524;55.740;37.544;2022-08-03T01:19:41;8;;;3.6;;
40048;SDS011;54524;55.740;37.544;2022-08-03T01:21:06;6.30;;;1.20;;
40048;SDS011;54524;55.740;37.544;2022-08-03T01:22:09;14.6;;;3.9;;
40048;SDS011;54524;55.740;37.544;2022-08-03T01:23:20;9.6;;;4.2;;
40048;SDS011;54524;55.740;37.544;2022-08-03T01:24:28;9.7;;;4.2;;
40048;SDS011;54524;55.740;37.544;2022-08-03T01:25:33;9.8;;;4.2;;
40048;SDS011;54524;55.740;37.544;2022-08-03T01:26:46;10.7;;;3.7;;
40048;SDS011;54524;55.740;37.544;2022-08-03T01:27:50;10.8;;;3.7;;
40048;SDS011;54524;55.740;37.544;2022-08-03T01:29:00;10.6;;;3.6;;
40048;SDS011;54524;55.740;37.544;2022-08-03T01:31:04;7.1;;;3.6;;
40048;SDS011;54524;55.740;37.544;2022-08-03T01:32:07;7.9;;;3.6;;
40048;SDS011;54524;55.740;37.544;2022-08-03T01:33:11;8.2;;;3.9;;
40048;SDS011;54524;55.740;37.544;2022-08-03T01:34:13;8.5;;;3.9;;
40048;SDS011;54524;55.740;37.544;2022-08-03T01:35:16;8.5;;;3.9;;
40048;SDS011;54524;55.740;37.544;2022-08-03T01:36:21;8;;;3.8;;
40048;SDS011;54524;55.740;37.544;2022-08-03T01:37:23;8.1;;;3.8;;
40048;SDS011;54524;55.740;37.544;2022-08-03T01:38:25;8.5;;;3.5;;
40048;SDS011;54524;55.740;37.544;2022-08-03T01:39:26;8.4;;;3.6;;
40048;SDS011;54524;55.740;37.544;2022-08-03T01:41:03;8.4;;;3.6;;
40048;SDS011;54524;55.740;37.544;2022-08-03T01:42:05;7.7;;;3.4;;
40048;SDS011;54524;55.740;37.544;2022-08-03T01:43:07;7.5;;;3.4;;
40048;SDS011;54524;55.740;37.544;2022-08-03T01:44:08;7.7;;;3.4;;
40048;SDS011;54524;55.740;37.544;2022-08-03T01:45:10;5.2;;;3.2;;
40048;SDS011;54524;55.740;37.544;2022-08-03T01:46:11;5.3;;;3.2;;
40048;SDS011;54524;55.740;37.544;2022-08-03T01:47:12;5.3;;;3.2;;
40048;SDS011;54524;55.740;37.544;2022-08-03T01:48:14;8.7;;;3.5;;
40048;SDS011;54524;55.740;37.544;2022-08-03T01:49:15;8.6;;;3.5;;
40048;SDS011;54524;55.740;37.544;2022-08-03T01:51:03;8.9;;;3.5;;
40048;SDS011;54524;55.740;37.544;2022-08-03T01:52:05;8.4;;;3.5;;
40048;SDS011;54524;55.740;37.544;2022-08-03T01:53:06;6.9;;;3.4;;
40048;SDS011;54524;55.740;37.544;2022-08-03T01:54:08;7.1;;;3.5;;
40048;SDS011;54524;55.740;37.544;2022-08-03T01:55:10;7.3;;;3.6;;
40048;SDS011;54524;55.740;37.544;2022-08-03T01:56:12;7.3;;;3.6;;
40048;SDS011;54524;55.740;37.544;2022-08-03T01:57:13;12.5;;;3.5;;
40048;SDS011;54524;55.740;37.544;2022-08-03T01:58:14;12.5;;;3.5;;
40048;SDS011;54524;55.740;37.544;2022-08-03T01:59:16;10.9;;;3.6;;
40048;SDS011;54524;55.740;37.544;2022-08-03T02:01:04;6.6;;;3.4;;
40048;SDS011;54524;55.740;37.544;2022-08-03T02:02:06;6.7;;;3.4;;
40048;SDS011;54524;55.740;37.544;2022-08-03T02:03:07;6.7;;;3.5;;
40048;SDS011;54524;55.740;37.544;2022-08-03T02:04:08;6.8;;;3.6;;
40048;SDS011;54524;55.740;37.544;2022-08-03T02:05:10;6.8;;;3.6;;
40048;SDS011;54524;55.740;37.544;2022-08-03T02:06:11;9;;;3.5;;
40048;SDS011;54524;55.740;37.544;2022-08-03T02:07:13;8.9;;;3.5;;
40048;SDS011;54524;55.740;37.544;2022-08-03T02:08:14;9;;;3.5;;
40048;SDS011;54524;55.740;37.544;2022-08-03T02:09:16;7.8;;;3.7;;
40048;SDS011;54524;55.740;37.544;2022-08-03T02:11:03;9;;;3.7;;
40048;SDS011;54524;55.740;37.544;2022-08-03T02:12:06;7.1;;;3.6;;
40048;SDS011;54524;55.740;37.544;2022-08-03T02:13:07;7.1;;;3.5;;
40048;SDS011;54524;55.740;37.544;2022-08-03T02:14:08;7.8;;;3.5;;
40048;SDS011;54524;55.740;37.544;2022-08-03T02:15:09;7.3;;;3.4;;
40048;SDS011;54524;55.740;37.544;2022-08-03T02:16:11;7.2;;;3.5;;
40048;SDS011;54524;55.740;37.544;2022-08-03T02:17:13;7.2;;;3.5;;
40048;SDS011;54524;55.740;37.544;2022-08-03T02:18:15;9.4;;;4;;
40048;SDS011;54524;55.740;37.544;2022-08-03T02:19:16;9.4;;;4;;
40048;SDS011;54524;55.740;37.544;2022-08-03T02:21:03;9.4;;;4;;
40048;SDS011;54524;55.740;37.544;2022-08-03T02:22:04;6.6;;;3.4;;
40048;SDS011;54524;55.740;37.544;2022-08-03T02:23:07;6.9;;;3.4;;
40048;SDS011;54524;55.740;37.544;2022-08-03T02:24:08;6.9;;;3.3;;
40048;SDS011;54524;55.740;37.544;2022-08-03T02:25:09;7;;;3.6;;
40048;SDS011;54524;55.740;37.544;2022-08-03T02:26:10;6.9;;;3.5;;
40048;SDS011;54524;55.740;37.544;2022-08-03T02:27:15;7.6;;;4;;
40048;SDS011;54524;55.740;37.544;2022-08-03T02:28:18;7.2;;;3.9;;
40048;SDS011;54524;55.740;37.544;2022-08-03T02:29:20;7.3;;;3.9;;
40048;SDS011;54524;55.740;37.544;2022-08-03T02:31:04;8;;;3.7;;
40048;SDS011;54524;55.740;37.544;2022-08-03T02:32:04;7.9;;;3.7;;
40048;SDS011;54524;55.740;37.544;2022-08-03T02:33:06;7.8;;;3.6;;
40048;SDS011;54524;55.740;37.544;2022-08-03T02:34:10;5.8;;;3.6;;
40048;SDS011;54524;55.740;37.544;2022-08-03T02:35:12;5.9;;;3.6;;
40048;SDS011;54524;55.740;37.544;2022-08-03T02:36:14;6.5;;;3.7;;
40048;SDS011;54524;55.740;37.544;2022-08-03T02:37:19;6.8;;;3.8;;
40048;SDS011;54524;55.740;37.544;2022-08-03T02:38:22;6.4;;;3.8;;
40048;SDS011;54524;55.740;37.544;2022-08-03T02:39:25;9.5;;;3.9;;
40048;SDS011;54524;55.740;37.544;2022-08-03T02:41:04;8.8;;;3.9;;
40048;SDS011;54524;55.740;37.544;2022-08-03T02:42:06;8.9;;;4;;
40048;SDS011;54524;55.740;37.544;2022-08-03T02:43:09;8.9;;;4.2;;
40048;SDS011;54524;55.740;37.544;2022-08-03T02:44:11;9.1;;;4.3;;
40048;SDS011;54524;55.740;37.544;2022-08-03T02:45:11;9.2;;;4.4;;
40048;SDS011;54524;55.740;37.544;2022-08-03T02:46:13;8.5;;;3.9;;
40048;SDS011;54524;55.740;37.544;2022-08-03T02:47:17;8.5;;;3.9;;
40048;SDS011;54524;55.740;37.544;2022-08-03T02:48:21;8.7;;;4;;
40048;SDS011;54524;55.740;37.544;2022-08-03T02:49:22;14.6;;;4.1;;
40048;SDS011;54524;55.740;37.544;2022-08-03T02:51:03;15.3;;;4;;
40048;SDS011;54524;55.740;37.544;2022-08-03T02:52:04;6.7;;;3.9;;
40048;SDS011;54524;55.740;37.544;2022-08-03T02:53:05;7.3;;;3.9;;
40048;SDS011;54524;55.740;37.544;2022-08-03T02:54:06;7.9;;;3.9;;
40048;SDS011;54524;55.740;37.544;2022-08-03T02:55:08;11.9;;;3.8;;
40048;SDS011;54524;55.740;37.544;2022-08-03T02:56:09;10.9;;;3.8;;
40048;SDS011;54524;55.740;37.544;2022-08-03T02:57:11;11;;;3.8;;
40048;SDS011;54524;55.740;37.544;2022-08-03T02:58:13;0;;;0;;
40048;SDS011;54524;55.740;37.544;2022-08-03T02:59:16;7.6;;;3.9;;
40048;SDS011;54524;55.740;37.544;2022-08-03T03:01:04;9;;;3.8;;
40048;SDS011;54524;55.740;37.544;2022-08-03T03:02:05;8.7;;;3.8;;
40048;SDS011;54524;55.740;37.544;2022-08-03T03:03:06;8.3;;;3.8;;
40048;SDS011;54524;55.740;37.544;2022-08-03T03:04:06;7.8;;;3.8;;
40048;SDS011;54524;55.740;37.544;2022-08-03T03:05:09;8.5;;;3.8;;
40048;SDS011;54524;55.740;37.544;2022-08-03T03:06:11;8.6;;;3.8;;
40048;SDS011;54524;55.740;37.544;2022-08-03T03:07:12;9;;;4.2;;
40048;SDS011;54524;55.740;37.544;2022-08-03T03:08:14;9.1;;;4.2;;
40048;SDS011;54524;55.740;37.544;2022-08-03T03:09:15;6.6;;;4;;
40048;SDS011;54524;55.740;37.544;2022-08-03T03:11:03;8.8;;;3.8;;
40048;SDS011;54524;55.740;37.544;2022-08-03T03:12:04;8.2;;;3.8;;
40048;SDS011;54524;55.740;37.544;2022-08-03T03:13:05;0;;;0;;
40048;SDS011;54524;55.740;37.544;2022-08-03T03:14:06;10.4;;;4.2;;
40048;SDS011;54524;55.740;37.544;2022-08-03T03:15:09;10.6;;;4.2;;
40048;SDS011;54524;55.740;37.544;2022-08-03T03:16:11;7.2;;;4;;
40048;SDS011;54524;55.740;37.544;2022-08-03T03:17:13;7.5;;;4.1;;
40048;SDS011;54524;55.740;37.544;2022-08-03T03:18:14;8.1;;;4;;
40048;SDS011;54524;55.740;37.544;2022-08-03T03:19:15;9.5;;;4.1;;
40048;SDS011;54524;55.740;37.544;2022-08-03T03:21:03;9.8;;;4.1;;
40048;SDS011;54524;55.740;37.544;2022-08-03T03:22:04;9.8;;;4.2;;
40048;SDS011;54524;55.740;37.544;2022-08-03T03:23:06;8.8;;;4.2;;
40048;SDS011;54524;55.740;37.544;2022-08-03T03:24:08;8.9;;;4.2;;
40048;SDS011;54524;55.740;37.544;2022-08-03T03:25:09;8.7;;;4.2;;
40048;SDS011;54524;55.740;37.544;2022-08-03T03:26:10;10.4;;;4.4;;
40048;SDS011;54524;55.740;37.544;2022-08-03T03:27:13;10.4;;;4.4;;
40048;SDS011;54524;55.740;37.544;2022-08-03T03:28:13;11.1;;;4.4;;
40048;SDS011;54524;55.740;37.544;2022-08-03T03:29:14;0;;;0;;
40048;SDS011;54524;55.740;37.544;2022-08-03T03:31:04;6;;;4.1;;
40048;SDS011;54524;55.740;37.544;2022-08-03T03:32:05;9.5;;;4.1;;
40048;SDS011;54524;55.740;37.544;2022-08-03T03:33:06;9.1;;;4.1;;
40048;SDS011;54524;55.740;37.544;2022-08-03T03:34:06;9.3;;;4.1;;
40048;SDS011;54524;55.740;37.544;2022-08-03T03:35:07;8.5;;;4.3;;
40048;SDS011;54524;55.740;37.544;2022-08-03T03:36:09;8.5;;;4.3;;
40048;SDS011;54524;55.740;37.544;2022-08-03T03:37:10;8.4;;;4.3;;
40048;SDS011;54524;55.740;37.544;2022-08-03T03:38:11;10.5;;;4.5;;
40048;SDS011;54524;55.740;37.544;2022-08-03T03:39:11;10.5;;;4.5;;
40048;SDS011;54524;55.740;37.544;2022-08-03T03:41:03;10.1;;;4.3;;
40048;SDS011;54524;55.740;37.544;2022-08-03T03:42:04;9.9;;;4.4;;
40048;SDS011;54524;55.740;37.544;2022-08-03T03:43:06;10.3;;;4.4;;
40048;SDS011;54524;55.740;37.544;2022-08-03T03:44:06;10.3;;;4.3;;
40048;SDS011;54524;55.740;37.544;2022-08-03T03:45:07;9.7;;;4.4;;
40048;SDS011;54524;55.740;37.544;2022-08-03T03:46:10;9.8;;;4.4;;
40048;SDS011;54524;55.740;37.544;2022-08-03T03:47:11;8.4;;;4.6;;
40048;SDS011;54524;55.740;37.544;2022-08-03T03:48:12;8.3;;;4.6;;
40048;SDS011;54524;55.740;37.544;2022-08-03T03:49:13;8.2;;;4.6;;
40048;SDS011;54524;55.740;37.544;2022-08-03T03:51:03;10.9;;;4.9;;
40048;SDS011;54524;55.740;37.544;2022-08-03T03:52:04;10.7;;;4.9;;
40048;SDS011;54524;55.740;37.544;2022-08-03T03:53:07;10;;;4.7;;
40048;SDS011;54524;55.740;37.544;2022-08-03T03:54:07;9.7;;;4.6;;
40048;SDS011;54524;55.740;37.544;2022-08-03T03:55:08;9.5;;;4.6;;
40048;SDS011;54524;55.740;37.544;2022-08-03T03:56:08;11.2;;;5;;
40048;SDS011;54524;55.740;37.544;2022-08-03T03:57:10;11.2;;;5;;
40048;SDS011;54524;55.740;37.544;2022-08-03T03:58:10;9.2;;;4.9;;
40048;SDS011;54524;55.740;37.544;2022-08-03T03:59:11;17.2;;;4.9;;
40048;SDS011;54524;55.740;37.544;2022-08-03T04:01:04;18.2;;;4.9;;
40048;SDS011;54524;55.740;37.544;2022-08-03T04:02:04;21.9;;;5;;
40048;SDS011;54524;55.740;37.544;2022-08-03T04:03:05;7.7;;;4.7;;
40048;SDS011;54524;55.740;37.544;2022-08-03T04:04:06;7.9;;;4.7;;
40048;SDS011;54524;55.740;37.544;2022-08-03T04:07:13;12;;;5.2;;
40048;SDS011;54524;55.740;37.544;2022-08-03T04:11:06;10.4;;;4.9;;
40048;SDS011;54524;55.740;37.544;2022-08-03T04:12:08;0;;;0;;
40048;SDS011;54524;55.740;37.544;2022-08-03T04:13:09;9.7;;;5.1;;
40048;SDS011;54524;55.740;37.544;2022-08-03T04:14:12;9.3;;;5;;
40048;SDS011;54524;55.740;37.544;2022-08-03T04:15:14;12.1;;;5.2;;
40048;SDS011;54524;55.740;37.544;2022-08-03T04:16:15;11.9;;;5.2;;
40048;SDS011;54524;55.740;37.544;2022-08-03T04:17:17;12.2;;;5.1;;
40048;SDS011;54524;55.740;37.544;2022-08-03T04:18:18;12.4;;;5.4;;
40048;SDS011;54524;55.740;37.544;2022-08-03T04:19:22;12.3;;;5.4;;
40048;SDS011;54524;55.740;37.544;2022-08-03T04:21:04;9.7;;;5.5;;
40048;SDS011;54524;55.740;37.544;2022-08-03T04:22:08;9.7;;;5.5;;
40048;SDS011;54524;55.740;37.544;2022-08-03T04:23:09;12.1;;;5.6;;
40048;SDS011;54524;55.740;37.544;2022-08-03T04:24:11;9.5;;;5.2;;
40048;SDS011;54524;55.740;37.544;2022-08-03T04:25:13;9.6;;;5.3;;
40048;SDS011;54524;55.740;37.544;2022-08-03T04:26:18;9.6;;;5.4;;
40048;SDS011;54524;55.740;37.544;2022-08-03T04:27:21;14.6;;;5.4;;
40048;SDS011;54524;55.740;37.544;2022-08-03T04:28:22;14.4;;;5.3;;
40048;SDS011;54524;55.740;37.544;2022-08-03T04:29:23;14.2;;;5.2;;
40048;SDS011;54524;55.740;37.544;2022-08-03T04:31:03;9.2;;;5.1;;
40048;SDS011;54524;55.740;37.544;2022-08-03T04:32:05;9.3;;;5.2;;
40048;SDS011;54524;55.740;37.544;2022-08-03T04:33:06;10.8;;;5.2;;
40048;SDS011;54524;55.740;37.544;2022-08-03T04:34:07;10.7;;;5.1;;
40048;SDS011;54524;55.740;37.544;2022-08-03T04:35:08;10;;;5.1;;
40048;SDS011;54524;55.740;37.544;2022-08-03T04:36:10;7.2;;;4.6;;
40048;SDS011;54524;55.740;37.544;2022-08-03T04:37:13;7.7;;;4.6;;
40048;SDS011;54524;55.740;37.544;2022-08-03T04:38:14;7.8;;;4.7;;
40048;SDS011;54524;55.740;37.544;2022-08-03T04:39:18;11.6;;;5.8;;
40048;SDS011;54524;55.740;37.544;2022-08-03T04:41:03;6.30;;;1.20;;
40048;SDS011;54524;55.740;37.544;2022-08-03T04:42:05;10.9;;;5.8;;
40048;SDS011;54524;55.740;37.544;2022-08-03T04:43:06;11.6;;;5.5;;
40048;SDS011;54524;55.740;37.544;2022-08-03T04:44:07;11.9;;;5.6;;
40048;SDS011;54524;55.740;37.544;2022-08-03T04:45:09;11.9;;;5.6;;
40048;SDS011;54524;55.740;37.544;2022-08-03T04:46:10;14.7;;;5.5;;
40048;SDS011;54524;55.740;37.544;2022-08-03T04:47:12;14.9;;;5.5;;
40048;SDS011;54524;55.740;37.544;2022-08-03T04:48:13;14.5;;;5.5;;
40048;SDS011;54524;55.740;37.544;2022-08-03T04:49:14;10.5;;;5.6;;
40048;SDS011;54524;55.740;37.544;2022-08-03T04:51:03;11;;;5.6;;
40048;SDS011;54524;55.740;37.544;2022-08-03T04:52:04;12.4;;;5.7;;
40048;SDS011;54524;55.740;37.544;2022-08-03T04:53:06;12.4;;;5.8;;
40048;SDS011;54524;55.740;37.544;2022-08-03T04:54:10;12.8;;;5.7;;
40048;SDS011;54524;55.740;37.544;2022-08-03T04:55:11;11.3;;;5.6;;
40048;SDS011;54524;55.740;37.544;2022-08-03T04:56:12;10.3;;;5.7;;
40048;SDS011;54524;55.740;37.544;2022-08-03T04:57:13;10.6;;;5.8;;
40048;SDS011;54524;55.740;37.544;2022-08-03T04:58:13;13.3;;;6.2;;
40048;SDS011;54524;55.740;37.544;2022-08-03T04:59:14;13.6;;;6.2;;
40048;SDS011;54524;55.740;37.544;2022-08-03T05:01:03;10.3;;;5.6;;
40048;SDS011;54524;55.740;37.544;2022-08-03T05:02:04;10.3;;;5.6;;
40048;SDS011;54524;55.740;37.544;2022-08-03T05:03:06;10.3;;;5.6;;
40048;SDS011;54524;55.740;37.544;2022-08-03T05:04:06;10.9;;;5.5;;
40048;SDS011;54524;55.740;37.544;2022-08-03T05:05:07;11.1;;;5.6;;
40048;SDS011;54524;55.740;37.544;2022-08-03T05:06:08;11.2;;;5.6;;
40048;SDS011;54524;55.740;37.544;2022-08-03T05:07:09;0;;;0;;
40048;SDS011;54524;55.740;37.544;2022-08-03T05:08:10;14.3;;;5.4;;
40048;SDS011;54524;55.740;37.544;2022-08-03T05:09:11;14.5;;;5.4;;
40048;SDS011;54524;55.740;37.544;2022-08-03T05:11:03;8.7;;;4.9;;
40048;SDS011;54524;55.740;37.544;2022-08-03T05:12:04;8.7;;;5;;
40048;SDS011;54524;55.740;37.544;2022-08-03T05:13:05;10.9;;;5;;
40048;SDS011;54524;55.740;37.544;2022-08-03T05:14:05;11.7;;;5.1;;
40048;SDS011;54524;55.740;37.544;2022-08-03T05:15:06;11.6;;;5.1;;
40048;SDS011;54524;55.740;37.544;2022-08-03T05:16:07;8.4;;;4.6;;
40048;SDS011;54524;55.740;37.544;2022-08-03T05:17:08;8.5;;;4.6;;
40048;SDS011;54524;55.740;37.544;2022-08-03T05:18:09;8.5;;;4.5;;
40048;SDS011;54524;55.740;37.544;2022-08-03T05:19:09;10.6;;;4.5;;
40048;SDS011;54524;55.740;37.544;2022-08-03T05:21:03;11.1;;;4.6;;
40048;SDS011;54524;55.740;37.544;2022-08-03T05:22:04;15;;;4.5;;
40048;SDS011;54524;55.740;37.544;2022-08-03T05:23:04;15.1;;;4.5;;
40048;SDS011;54524;55.740;37.544;2022-08-03T05:24:05;15.1;;;4.5;;
40048;SDS011;54524;55.740;37.544;2022-08-03T05:25:06;12.5;;;5.1;;
40048;SDS011;54524;55.740;37.544;2022-08-03T05:26:06;12.3;;;5;;
40048;SDS011;54524;55.740;37.544;2022-08-03T05:27:07;12.3;;;5;;
40048;SDS011;54524;55.740;37.544;2022-08-03T05:28:08;12.6;;;5;;
40048;SDS011;54524;55.740;37.544;2022-08-03T05:29:08;12.3;;;5.1;;
40048;SDS011;54524;55.740;37.544;2022-08-03T05:31:03;10.8;;;5;;
40048;SDS011;54524;55.740;37.544;2022-08-03T05:32:04;13.9;;;4.9;;
40048;SDS011;54524;55.740;37.544;2022-08-03T05:33:05;14.2;;;5;;
40048;SDS011;54524;55.740;37.544;2022-08-03T05:34:05;13.7;;;4.9;;
40048;SDS011;54524;55.740;37.544;2022-08-03T05:35:06;14.8;;;4.7;;
40048;SDS011;54524;55.740;37.544;2022-08-03T05:36:07;13.7;;;4.6;;
40048;SDS011;54524;55.740;37.544;2022-08-03T05:37:08;13.8;;;4.6;;
40048;SDS011;54524;55.740;37.544;2022-08-03T05:38:09;9.3;;;4.4;;
40048;SDS011;54524;55.740;37.544;2022-08-03T05:39:09;8.9;;;4.4;;
40048;SDS011;54524;55.740;37.544;2022-08-03T05:41:03;12.9;;;4.1;;
40048;SDS011;54524;55.740;37.544;2022-08-03T05:42:03;12.9;;;4.2;;
40048;SDS011;54524;55.740;37.544;2022-08-03T05:43:04;12.8;;;4.2;;
40048;SDS011;54524;55.740;37.544;2022-08-03T05:44:04;16.6;;;4.7;;
40048;SDS011;54524;55.740;37.544;2022-08-03T05:45:05;16.8;;;4.8;;
40048;SDS011;54524;55.740;37.544;2022-08-03T05:46:21;16.7;;;4.9;;
40048;SDS011;54524;55.740;37.544;2022-08-03T05:47:22;11.9;;;4.6;;
40048;SDS011;54524;55.740;37.544;2022-08-03T05:48:23;11.7;;;4.5;;
40048;SDS011;54524;55.740;37.544;2022-08-03T05:49:23;11.8;;;4.5;;
40048;SDS011;54524;55.740;37.544;2022-08-03T05:51:04;10.8;;;4.3;;
40048;SDS011;54524;55.740;37.544;2022-08-03T05:52:06;10.9;;;4.4;;
40048;SDS011;54524;55.740;37.544;2022-08-03T05:53:07;12.4;;;4.8;;
40048;SDS011;54524;55.740;37.544;2022-08-03T05:54:07;12.6;;;4.5;;
40048;SDS011;54524;55.740;37.544;2022-08-03T05:55:08;12.7;;;4.5;;
40048;SDS011;54524;55.740;37.544;2022-08-03T05:56:09;9.5;;;4.1;;
40048;SDS011;54524;55.740;37.544;2022-08-03T05:57:10;9.4;;;4.1;;
40048;SDS011;54524;55.740;37.544;2022-08-03T05:58:11;9.4;;;4.1;;
40048;SDS011;54524;55.740;37.544;2022-08-03T05:59:11;13;;;4.6;;
40048;SDS011;54524;55.740;37.544;2022-08-03T06:01:03;12.3;;;4.5;;
40048;SDS011;54524;55.740;37.544;2022-08-03T06:02:04;11.9;;;4.5;;
40048;SDS011;54524;55.740;37.544;2022-08-03T06:03:05;12;;;3.9;;
40048;SDS011;54524;55.740;37.544;2022-08-03T06:04:05;11.3;;;3.8;;
40048;SDS011;54524;55.740;37.544;2022-08-03T06:05:06;11.2;;;3.8;;
40048;SDS011;54524;55.740;37.544;2022-08-03T06:06:07;12.4;;;4.8;;
40048;SDS011;54524;55.740;37.544;2022-08-03T06:07:08;11.9;;;4.7;;
40048;SDS011;54524;55.740;37.544;2022-08-03T06:08:09;12.2;;;4.7;;
40048;SDS011;54524;55.740;37.544;2022-08-03T06:09:09;10.4;;;4.2;;
40048;SDS011;54524;55.740;37.544;2022-08-03T06:11:02;10.3;;;4.2;;
40048;SDS011;54524;55.740;37.544;2022-08-03T06:12:04;10;;;4.4;;
40048;SDS011;54524;55.740;37.544;2022-08-03T06:13:04;10.2;;;4.5;;
40048;SDS011;54524;55.740;37.544;2022-08-03T06:14:05;10.6;;;4.5;;
40048;SDS011;54524;55.740;37.544;2022-08-03T06:15:06;9.8;;;4.2;;
40048;SDS011;54524;55.740;37.544;2022-08-03T06:16:06;9.8;;;4.2;;
40048;SDS011;54524;55.740;37.544;2022-08-03T06:17:07;9.9;;;4.2;;
40048;SDS011;54524;55.740;37.544;2022-08-03T06:18:08;9.8;;;3.7;;
40048;SDS011;54524;55.740;37.544;2022-08-03T06:19:09;9.7;;;3.6;;
40048;SDS011;54524;55.740;37.544;2022-08-03T06:21:03;7.1;;;3.2;;
40048;SDS011;54524;55.740;37.544;2022-08-03T06:22:04;7.1;;;3.2;;
40048;SDS011;54524;55.740;37.544;2022-08-03T06:23:04;7.1;;;3.2;;
40048;SDS011;54524;55.740;37.544;2022-08-03T06:24:05;7.1;;;2.8;;
40048;SDS011;54524;55.740;37.544;2022-08-03T06:25:06;6.9;;;2.8;;
40048;SDS011;54524;55.740;37.544;2022-08-03T06:26:07;7;;;2.8;;
40048;SDS011;54524;55.740;37.544;2022-08-03T06:27:08;6.1;;;2.8;;
40048;SDS011;54524;55.740;37.544;2022-08-03T06:28:08;6.9;;;2.9;;
40048;SDS011;54524;55.740;37.544;2022-08-03T06:29:09;7.2;;;2.9;;
40048;SDS011;54524;55.740;37.544;2022-08-03T06:31:03;8.4;;;3.5;;
40048;SDS011;54524;55.740;37.544;2022-08-03T06:32:04;9.5;;;3.6;;
40048;SDS011;54524;55.740;37.544;2022-08-03T06:33:05;6.5;;;3.3;;
40048;SDS011;54524;55.740;37.544;2022-08-03T06:34:05;6.5;;;3.3;;
40048;SDS011;54524;55.740;37.544;2022-08-03T06:35:07;6.4;;;3.3;;
40048;SDS011;54524;55.740;37.544;2022-08-03T06:36:07;6.9;;;3.3;;
40048;SDS011;54524;55.740;37.544;2022-08-03T06:37:08;7;;;3.3;;
40048;SDS011;54524;55.740;37.544;2022-08-03T06:38:09;6.9;;;3.3;;
40048;SDS011;54524;55.740;37.544;2022-08-03T06:39:09;5.4;;;2.8;;
40048;SDS011;54524;55.740;37.544;2022-08-03T06:41:03;4.7;;;2.7;;
40048;SDS011;54524;55.740;37.544;2022-08-03T06:42:03;6.5;;;2.7;;
40048;SDS011;54524;55.740;37.544;2022-08-03T06:43:04;6.3;;;2.7;;
40048;SDS011;54524;55.740;37.544;2022-08-03T06:44:05;6.2;;;2.7;;
40048;SDS011;54524;55.740;37.544;2022-08-03T06:45:06;6.5;;;2.9;;
40048;SDS011;54524;55.740;37.544;2022-08-03T06:46:08;6.5;;;2.9;;
40048;SDS011;54524;55.740;37.544;2022-08-03T06:47:10;5.8;;;2.9;;
40048;SDS011;54524;55.740;37.544;2022-08-03T06:48:11;5.8;;;2.9;;
40048;SDS011;54524;55.740;37.544;2022-08-03T06:49:12;6.5;;;3.1;;
40048;SDS011;54524;55.740;37.544;2022-08-03T06:51:04;6.5;;;3.1;;
40048;SDS011;54524;55.740;37.544;2022-08-03T06:52:04;5.4;;;2.4;;